CDG8818 ZSJN-ZYCC
Flight info
| Callsign | CDG8818 |
|---|---|
| Flight time | 1h 35m |
| Altitude | 31100 |
| Route | OKALI W103 WFG H30 HCH W173 NIXEP W8 DOBGA W202 UDETI A588 LEMOT |
| Aircraft | B738/M-SDE2E3FGHIRWXY/LB1 |
Departure
| Time | 2026-04-21 15:23 |
|---|---|
| Airport | Jinan Yaoqiang International Airport (ZSJN) |
Arrival
| Time | 2026-04-21 16:59 |
|---|---|
| Airport | Changchun Longjia International Airport (ZYCC) |
| Time | Latitude | Longitude | Altitude | Speed | Heading |
|---|---|---|---|---|---|
| 2026-04-21 14:52 | 36.84925 | 117.20859 | 83 ft | 0 kts | 290° |
| 2026-04-21 15:10 | 36.84922 | 117.20871 | 83 ft | 2 kts | 290° |
| 2026-04-21 15:11 | 36.84916 | 117.20888 | 83 ft | 2 kts | 290° |
| 2026-04-21 15:11 | 36.84911 | 117.20906 | 83 ft | 2 kts | 290° |
| 2026-04-21 15:11 | 36.84906 | 117.20924 | 83 ft | 2 kts | 290° |
| 2026-04-21 15:11 | 36.84901 | 117.20941 | 83 ft | 2 kts | 290° |
| 2026-04-21 15:12 | 36.84894 | 117.20958 | 83 ft | 2 kts | 324° |
| 2026-04-21 15:12 | 36.84880 | 117.20963 | 83 ft | 2 kts | 9° |
| 2026-04-21 15:12 | 36.84874 | 117.20961 | 83 ft | 1 kts | 28° |
| 2026-04-21 15:12 | 36.84870 | 117.20959 | 83 ft | 0 kts | 22° |
| 2026-04-21 15:14 | 36.84871 | 117.20959 | 83 ft | 0 kts | 22° |
| 2026-04-21 15:14 | 36.84896 | 117.20972 | 83 ft | 7 kts | 20° |
| 2026-04-21 15:14 | 36.84964 | 117.20985 | 83 ft | 10 kts | 360° |
| 2026-04-21 15:15 | 36.85039 | 117.20985 | 83 ft | 11 kts | 360° |
| 2026-04-21 15:15 | 36.85122 | 117.20985 | 83 ft | 12 kts | 360° |
| 2026-04-21 15:15 | 36.85209 | 117.20985 | 83 ft | 12 kts | 360° |
| 2026-04-21 15:15 | 36.85295 | 117.20985 | 83 ft | 11 kts | 0° |
| 2026-04-21 15:16 | 36.85356 | 117.21010 | 83 ft | 9 kts | 56° |
| 2026-04-21 15:16 | 36.85386 | 117.21089 | 83 ft | 11 kts | 65° |
| 2026-04-21 15:16 | 36.85423 | 117.21190 | 83 ft | 13 kts | 65° |
| 2026-04-21 15:16 | 36.85462 | 117.21268 | 83 ft | 9 kts | 27° |
| 2026-04-21 15:17 | 36.85529 | 117.21274 | 83 ft | 10 kts | 360° |
| 2026-04-21 15:17 | 36.85618 | 117.21273 | 83 ft | 14 kts | 360° |
| 2026-04-21 15:17 | 36.85733 | 117.21274 | 83 ft | 17 kts | 360° |
| 2026-04-21 15:17 | 36.85858 | 117.21273 | 83 ft | 17 kts | 360° |
| 2026-04-21 15:18 | 36.85980 | 117.21274 | 83 ft | 17 kts | 360° |
| 2026-04-21 15:18 | 36.86094 | 117.21273 | 83 ft | 11 kts | 360° |
| 2026-04-21 15:18 | 36.86149 | 117.21306 | 83 ft | 9 kts | 75° |
| 2026-04-21 15:18 | 36.86176 | 117.21371 | 83 ft | 8 kts | 19° |
| 2026-04-21 15:19 | 36.86232 | 117.21375 | 83 ft | 9 kts | 0° |
| 2026-04-21 15:19 | 36.86313 | 117.21375 | 83 ft | 13 kts | 0° |
| 2026-04-21 15:19 | 36.86429 | 117.21375 | 83 ft | 17 kts | 360° |
| 2026-04-21 15:19 | 36.86552 | 117.21375 | 83 ft | 17 kts | 0° |
| 2026-04-21 15:20 | 36.86677 | 117.21375 | 83 ft | 19 kts | 359° |
| 2026-04-21 15:20 | 36.86822 | 117.21375 | 83 ft | 21 kts | 360° |
| 2026-04-21 15:20 | 36.86973 | 117.21374 | 83 ft | 21 kts | 0° |
| 2026-04-21 15:20 | 36.87119 | 117.21374 | 83 ft | 20 kts | 0° |
| 2026-04-21 15:21 | 36.87260 | 117.21374 | 83 ft | 14 kts | 0° |
| 2026-04-21 15:21 | 36.87328 | 117.21384 | 83 ft | 9 kts | 36° |
| 2026-04-21 15:21 | 36.87342 | 117.21459 | 83 ft | 9 kts | 90° |
| 2026-04-21 15:21 | 36.87342 | 117.21534 | 83 ft | 8 kts | 90° |
| 2026-04-21 15:22 | 36.87328 | 117.21595 | 83 ft | 7 kts | 157° |
| 2026-04-21 15:22 | 36.87303 | 117.21599 | 83 ft | 0 kts | 179° |
| 2026-04-21 15:22 | 36.87300 | 117.21599 | 83 ft | 3 kts | 179° |
| 2026-04-21 15:22 | 36.87085 | 117.21599 | 83 ft | 65 kts | 180° |
| 2026-04-21 15:23 | 36.86403 | 117.21599 | 84 ft | 127 kts | 180° |
| 2026-04-21 15:23 | 36.85366 | 117.21605 | 247 ft | 159 kts | 182° |
| 2026-04-21 15:23 | 36.84275 | 117.21616 | 894 ft | 160 kts | 181° |
| 2026-04-21 15:23 | 36.83186 | 117.21639 | 1639 ft | 156 kts | 182° |
| 2026-04-21 15:24 | 36.82140 | 117.21742 | 2157 ft | 154 kts | 160° |
| 2026-04-21 15:24 | 36.81313 | 117.22642 | 2449 ft | 168 kts | 122° |
| 2026-04-21 15:24 | 36.81009 | 117.24064 | 2870 ft | 173 kts | 96° |
| 2026-04-21 15:24 | 36.81064 | 117.25571 | 3316 ft | 177 kts | 88° |
| 2026-04-21 15:25 | 36.81190 | 117.27115 | 3672 ft | 187 kts | 88° |
| 2026-04-21 15:25 | 36.81307 | 117.28788 | 3980 ft | 201 kts | 88° |
| 2026-04-21 15:25 | 36.81426 | 117.30599 | 4341 ft | 215 kts | 88° |
| 2026-04-21 15:25 | 36.81554 | 117.32484 | 4731 ft | 227 kts | 87° |
| 2026-04-21 15:26 | 36.81691 | 117.34503 | 5131 ft | 238 kts | 87° |
| 2026-04-21 15:26 | 36.81818 | 117.36584 | 5651 ft | 243 kts | 90° |
| 2026-04-21 15:26 | 36.81751 | 117.38721 | 6198 ft | 249 kts | 97° |
| 2026-04-21 15:26 | 36.81537 | 117.40892 | 6619 ft | 262 kts | 98° |
| 2026-04-21 15:27 | 36.81290 | 117.43175 | 7185 ft | 268 kts | 98° |
| 2026-04-21 15:27 | 36.81060 | 117.45480 | 7861 ft | 271 kts | 97° |
| 2026-04-21 15:27 | 36.80840 | 117.47835 | 8553 ft | 273 kts | 96° |
| 2026-04-21 15:27 | 36.80628 | 117.50147 | 9293 ft | 273 kts | 95° |
| 2026-04-21 15:28 | 36.80405 | 117.52522 | 9971 ft | 276 kts | 95° |
| 2026-04-21 15:28 | 36.80173 | 117.54909 | 10527 ft | 284 kts | 95° |
| 2026-04-21 15:28 | 36.79927 | 117.57406 | 10880 ft | 300 kts | 95° |
| 2026-04-21 15:28 | 36.79665 | 117.60068 | 11257 ft | 314 kts | 95° |
| 2026-04-21 15:29 | 36.79396 | 117.62803 | 11616 ft | 328 kts | 95° |
| 2026-04-21 15:29 | 36.79110 | 117.65694 | 11982 ft | 342 kts | 95° |
| 2026-04-21 15:29 | 36.78814 | 117.68697 | 12252 ft | 359 kts | 95° |
| 2026-04-21 15:29 | 36.78500 | 117.71859 | 12727 ft | 369 kts | 95° |
| 2026-04-21 15:30 | 36.78182 | 117.75035 | 13287 ft | 377 kts | 95° |
| 2026-04-21 15:30 | 36.77855 | 117.78294 | 13939 ft | 382 kts | 95° |
| 2026-04-21 15:30 | 36.77524 | 117.81606 | 14503 ft | 389 kts | 95° |
| 2026-04-21 15:30 | 36.77184 | 117.85001 | 14957 ft | 400 kts | 96° |
| 2026-04-21 15:31 | 36.76839 | 117.88435 | 15525 ft | 407 kts | 96° |
| 2026-04-21 15:31 | 36.76479 | 117.91997 | 16099 ft | 413 kts | 97° |
| 2026-04-21 15:31 | 36.76118 | 117.95556 | 16569 ft | 422 kts | 97° |
| 2026-04-21 15:31 | 36.75742 | 117.99228 | 17105 ft | 429 kts | 98° |
| 2026-04-21 15:32 | 36.75359 | 118.02949 | 17556 ft | 437 kts | 98° |
| 2026-04-21 15:32 | 36.74971 | 118.06725 | 18123 ft | 442 kts | 99° |
| 2026-04-21 15:32 | 36.74577 | 118.10548 | 18624 ft | 448 kts | 98° |
| 2026-04-21 15:32 | 36.74175 | 118.14423 | 19081 ft | 455 kts | 98° |
| 2026-04-21 15:33 | 36.73773 | 118.18294 | 19616 ft | 459 kts | 98° |
| 2026-04-21 15:33 | 36.73362 | 118.22238 | 20167 ft | 463 kts | 99° |
| 2026-04-21 15:33 | 36.72958 | 118.26264 | 20662 ft | 468 kts | 98° |
| 2026-04-21 15:33 | 36.72573 | 118.30299 | 21115 ft | 474 kts | 98° |
| 2026-04-21 15:34 | 36.72192 | 118.34386 | 21594 ft | 479 kts | 98° |
| 2026-04-21 15:34 | 36.71814 | 118.38491 | 21979 ft | 485 kts | 98° |
| 2026-04-21 15:34 | 36.71428 | 118.42661 | 22480 ft | 488 kts | 97° |
| 2026-04-21 15:34 | 36.71032 | 118.46908 | 22911 ft | 493 kts | 98° |
| 2026-04-21 15:35 | 36.70630 | 118.51182 | 23326 ft | 498 kts | 98° |
| 2026-04-21 15:35 | 36.70221 | 118.55485 | 23754 ft | 503 kts | 98° |
| 2026-04-21 15:35 | 36.69810 | 118.59791 | 24213 ft | 506 kts | 98° |
| 2026-04-21 15:35 | 36.69392 | 118.64150 | 24622 ft | 512 kts | 99° |
| 2026-04-21 15:36 | 36.68968 | 118.68545 | 25014 ft | 516 kts | 99° |
| 2026-04-21 15:36 | 36.68534 | 118.73023 | 25425 ft | 521 kts | 99° |
| 2026-04-21 15:36 | 36.68101 | 118.77461 | 25918 ft | 522 kts | 100° |
| 2026-04-21 15:36 | 36.67661 | 118.81945 | 26582 ft | 520 kts | 99° |
| 2026-04-21 15:37 | 36.67224 | 118.86398 | 27208 ft | 519 kts | 100° |
| 2026-04-21 15:37 | 36.66786 | 118.90848 | 27799 ft | 517 kts | 100° |
| 2026-04-21 15:37 | 36.66352 | 118.95231 | 28408 ft | 515 kts | 100° |
| 2026-04-21 15:37 | 36.65913 | 118.99657 | 29038 ft | 513 kts | 100° |
| 2026-04-21 15:38 | 36.65481 | 119.04012 | 29615 ft | 510 kts | 100° |
| 2026-04-21 15:38 | 36.65169 | 119.08467 | 29879 ft | 518 kts | 95° |
| 2026-04-21 15:38 | 36.65224 | 119.12972 | 30040 ft | 527 kts | 86° |
| 2026-04-21 15:38 | 36.65752 | 119.17448 | 30391 ft | 530 kts | 79° |
| 2026-04-21 15:39 | 36.66642 | 119.21945 | 30804 ft | 531 kts | 73° |
| 2026-04-21 15:39 | 36.67736 | 119.26294 | 31162 ft | 530 kts | 70° |
| 2026-04-21 15:39 | 36.70192 | 119.34955 | 31164 ft | 522 kts | 69° |
| 2026-04-21 15:40 | 36.72625 | 119.43556 | 31169 ft | 521 kts | 69° |
| 2026-04-21 15:40 | 36.74916 | 119.52097 | 31165 ft | 523 kts | 70° |
| 2026-04-21 15:41 | 36.77139 | 119.60743 | 31168 ft | 525 kts | 71° |
| 2026-04-21 15:41 | 36.79348 | 119.69437 | 31166 ft | 523 kts | 71° |
| 2026-04-21 15:42 | 36.81577 | 119.78054 | 31161 ft | 524 kts | 71° |
| 2026-04-21 15:42 | 36.83807 | 119.86711 | 31162 ft | 524 kts | 71° |
| 2026-04-21 15:43 | 36.86039 | 119.95387 | 31168 ft | 524 kts | 70° |
| 2026-04-21 15:43 | 36.89260 | 120.03450 | 31164 ft | 517 kts | 47° |
| 2026-04-21 15:44 | 36.91727 | 120.06610 | 31169 ft | 505 kts | 33° |
| 2026-04-21 15:44 | 36.94554 | 120.09053 | 31168 ft | 493 kts | 22° |
| 2026-04-21 15:44 | 37.00727 | 120.12708 | 31162 ft | 483 kts | 12° |
| 2026-04-21 15:45 | 37.07062 | 120.15250 | 31157 ft | 477 kts | 6° |
| 2026-04-21 15:45 | 37.13517 | 120.17471 | 31161 ft | 479 kts | 6° |
| 2026-04-21 15:46 | 37.19924 | 120.19684 | 31160 ft | 476 kts | 6° |
| 2026-04-21 15:46 | 37.26326 | 120.21988 | 31150 ft | 480 kts | 7° |
| 2026-04-21 15:47 | 37.32763 | 120.24364 | 31137 ft | 480 kts | 7° |
| 2026-04-21 15:47 | 37.39047 | 120.27503 | 31141 ft | 497 kts | 21° |
| 2026-04-21 15:48 | 37.44764 | 120.32571 | 31134 ft | 502 kts | 32° |
| 2026-04-21 15:48 | 37.50137 | 120.38152 | 31135 ft | 506 kts | 34° |
| 2026-04-21 15:49 | 37.55532 | 120.43883 | 31135 ft | 507 kts | 33° |
| 2026-04-21 15:49 | 37.60977 | 120.49583 | 31130 ft | 505 kts | 33° |
| 2026-04-21 15:50 | 37.66449 | 120.55057 | 31122 ft | 500 kts | 28° |
| 2026-04-21 15:50 | 37.72272 | 120.59757 | 31124 ft | 498 kts | 23° |
| 2026-04-21 15:51 | 37.78287 | 120.64114 | 31132 ft | 497 kts | 21° |
| 2026-04-21 15:51 | 37.84247 | 120.68413 | 31119 ft | 493 kts | 22° |
| 2026-04-21 15:52 | 37.90233 | 120.72765 | 31111 ft | 497 kts | 22° |
| 2026-04-21 15:52 | 37.96255 | 120.77200 | 31110 ft | 498 kts | 23° |
| 2026-04-21 15:53 | 38.02220 | 120.81634 | 31110 ft | 496 kts | 22° |
| 2026-04-21 15:53 | 38.08145 | 120.86071 | 31106 ft | 499 kts | 23° |
| 2026-04-21 15:54 | 38.14146 | 120.90585 | 31111 ft | 498 kts | 23° |
| 2026-04-21 15:54 | 38.20066 | 120.95079 | 31104 ft | 497 kts | 25° |
| 2026-04-21 15:55 | 38.25285 | 121.00992 | 31106 ft | 515 kts | 49° |
| 2026-04-21 15:55 | 38.28754 | 121.08955 | 31100 ft | 520 kts | 63° |
| 2026-04-21 15:56 | 38.31692 | 121.17410 | 31111 ft | 523 kts | 65° |
| 2026-04-21 15:56 | 38.34546 | 121.25891 | 31100 ft | 525 kts | 65° |
| 2026-04-21 15:57 | 38.37425 | 121.34431 | 31099 ft | 523 kts | 64° |
| 2026-04-21 15:57 | 38.40345 | 121.42910 | 31107 ft | 524 kts | 64° |
| 2026-04-21 15:58 | 38.43350 | 121.51313 | 31102 ft | 522 kts | 61° |
| 2026-04-21 15:58 | 38.46647 | 121.59607 | 31103 ft | 522 kts | 59° |
| 2026-04-21 15:59 | 38.49996 | 121.67770 | 31107 ft | 521 kts | 60° |
| 2026-04-21 15:59 | 38.53340 | 121.75975 | 31108 ft | 523 kts | 60° |
| 2026-04-21 16:00 | 38.56648 | 121.84212 | 31102 ft | 520 kts | 60° |
| 2026-04-21 16:00 | 38.59932 | 121.92478 | 31099 ft | 522 kts | 60° |
| 2026-04-21 16:01 | 38.63199 | 122.00736 | 31101 ft | 520 kts | 60° |
| 2026-04-21 16:01 | 38.66467 | 122.08965 | 31098 ft | 522 kts | 57° |
| 2026-04-21 16:02 | 38.70754 | 122.16247 | 31092 ft | 505 kts | 37° |
| 2026-04-21 16:02 | 38.76278 | 122.21613 | 31103 ft | 496 kts | 25° |
| 2026-04-21 16:03 | 38.82082 | 122.26309 | 31100 ft | 492 kts | 24° |
| 2026-04-21 16:03 | 38.87911 | 122.30859 | 31095 ft | 490 kts | 23° |
| 2026-04-21 16:04 | 38.93748 | 122.35407 | 31092 ft | 489 kts | 23° |
| 2026-04-21 16:04 | 38.99558 | 122.39982 | 31088 ft | 493 kts | 23° |
| 2026-04-21 16:05 | 39.05364 | 122.44591 | 31088 ft | 492 kts | 23° |
| 2026-04-21 16:05 | 39.11189 | 122.49242 | 31083 ft | 489 kts | 23° |
| 2026-04-21 16:06 | 39.16980 | 122.53852 | 31079 ft | 489 kts | 23° |
| 2026-04-21 16:06 | 39.22772 | 122.58472 | 31075 ft | 492 kts | 24° |
| 2026-04-21 16:07 | 39.28591 | 122.63104 | 31072 ft | 489 kts | 21° |
| 2026-04-21 16:07 | 39.34533 | 122.67438 | 31072 ft | 487 kts | 20° |
| 2026-04-21 16:08 | 39.43477 | 122.73713 | 31068 ft | 486 kts | 20° |
| 2026-04-21 16:09 | 39.49436 | 122.77911 | 31060 ft | 488 kts | 20° |
| 2026-04-21 16:09 | 39.55388 | 122.82134 | 31056 ft | 490 kts | 20° |
| 2026-04-21 16:10 | 39.61360 | 122.86407 | 31050 ft | 491 kts | 20° |
| 2026-04-21 16:10 | 39.67313 | 122.90691 | 31055 ft | 487 kts | 19° |
| 2026-04-21 16:11 | 39.73297 | 122.95000 | 31047 ft | 493 kts | 20° |
| 2026-04-21 16:11 | 39.79228 | 122.99308 | 31041 ft | 489 kts | 20° |
| 2026-04-21 16:12 | 39.85160 | 123.03620 | 31038 ft | 490 kts | 20° |
| 2026-04-21 16:12 | 39.91128 | 123.07942 | 31040 ft | 491 kts | 20° |
| 2026-04-21 16:13 | 39.97089 | 123.12272 | 31029 ft | 493 kts | 19° |
| 2026-04-21 16:13 | 40.03044 | 123.16615 | 31026 ft | 487 kts | 19° |
| 2026-04-21 16:14 | 40.09017 | 123.20939 | 31028 ft | 492 kts | 18° |
| 2026-04-21 16:14 | 40.14984 | 123.25240 | 31033 ft | 490 kts | 19° |
| 2026-04-21 16:15 | 40.20957 | 123.29553 | 31032 ft | 487 kts | 19° |
| 2026-04-21 16:15 | 40.26971 | 123.33890 | 31018 ft | 493 kts | 18° |
| 2026-04-21 16:16 | 40.32952 | 123.38216 | 31023 ft | 488 kts | 18° |
| 2026-04-21 16:16 | 40.38862 | 123.42509 | 31031 ft | 491 kts | 18° |
| 2026-04-21 16:17 | 40.44784 | 123.46823 | 31022 ft | 487 kts | 18° |
| 2026-04-21 16:17 | 40.50723 | 123.51160 | 31023 ft | 487 kts | 18° |
| 2026-04-21 16:18 | 40.56625 | 123.55458 | 31030 ft | 489 kts | 18° |
| 2026-04-21 16:18 | 40.62592 | 123.59814 | 31026 ft | 490 kts | 18° |
| 2026-04-21 16:19 | 40.68528 | 123.64152 | 31024 ft | 484 kts | 18° |
| 2026-04-21 16:19 | 40.74401 | 123.68470 | 31025 ft | 485 kts | 18° |
| 2026-04-21 16:20 | 40.80321 | 123.72827 | 31004 ft | 489 kts | 18° |
| 2026-04-21 16:20 | 40.86254 | 123.77171 | 31013 ft | 488 kts | 18° |
| 2026-04-21 16:21 | 40.92195 | 123.81434 | 31012 ft | 486 kts | 17° |
| 2026-04-21 16:21 | 40.98172 | 123.85683 | 31029 ft | 488 kts | 17° |
| 2026-04-21 16:22 | 41.04088 | 123.89908 | 31028 ft | 478 kts | 17° |
| 2026-04-21 16:22 | 41.09945 | 123.94112 | 31026 ft | 484 kts | 16° |
| 2026-04-21 16:23 | 41.15825 | 123.98338 | 30988 ft | 482 kts | 16° |
| 2026-04-21 16:23 | 41.21748 | 124.02607 | 30985 ft | 483 kts | 16° |
| 2026-04-21 16:24 | 41.27618 | 124.06863 | 30986 ft | 483 kts | 16° |
| 2026-04-21 16:24 | 41.33529 | 124.11140 | 30990 ft | 484 kts | 15° |
| 2026-04-21 16:25 | 41.39428 | 124.15382 | 30988 ft | 480 kts | 15° |
| 2026-04-21 16:25 | 41.45294 | 124.19700 | 30986 ft | 483 kts | 17° |
| 2026-04-21 16:26 | 41.51193 | 124.24129 | 30988 ft | 486 kts | 17° |
| 2026-04-21 16:26 | 41.57018 | 124.28565 | 30986 ft | 482 kts | 16° |
| 2026-04-21 16:27 | 41.62890 | 124.33038 | 30981 ft | 484 kts | 16° |
| 2026-04-21 16:27 | 41.68716 | 124.37444 | 30980 ft | 482 kts | 16° |
| 2026-04-21 16:28 | 41.74511 | 124.41851 | 30983 ft | 482 kts | 15° |
| 2026-04-21 16:28 | 41.80331 | 124.46294 | 30980 ft | 482 kts | 16° |
| 2026-04-21 16:29 | 41.86183 | 124.50749 | 30978 ft | 484 kts | 15° |
| 2026-04-21 16:29 | 41.92034 | 124.55231 | 30984 ft | 481 kts | 15° |
| 2026-04-21 16:29 | 41.94909 | 124.57437 | 30802 ft | 481 kts | 15° |
| 2026-04-21 16:30 | 41.97800 | 124.59646 | 30550 ft | 482 kts | 15° |
| 2026-04-21 16:30 | 42.00717 | 124.61802 | 30287 ft | 472 kts | 13° |
| 2026-04-21 16:30 | 42.03603 | 124.63827 | 30030 ft | 468 kts | 12° |
| 2026-04-21 16:30 | 42.06524 | 124.65822 | 29801 ft | 462 kts | 12° |
| 2026-04-21 16:31 | 42.09364 | 124.67726 | 29578 ft | 459 kts | 12° |
| 2026-04-21 16:31 | 42.12202 | 124.69630 | 29339 ft | 454 kts | 12° |
| 2026-04-21 16:31 | 42.15021 | 124.71532 | 29134 ft | 452 kts | 12° |
| 2026-04-21 16:31 | 42.17856 | 124.73438 | 28903 ft | 451 kts | 12° |
| 2026-04-21 16:32 | 42.20629 | 124.75320 | 28668 ft | 446 kts | 12° |
| 2026-04-21 16:32 | 42.23387 | 124.77196 | 28450 ft | 446 kts | 13° |
| 2026-04-21 16:32 | 42.26118 | 124.79063 | 28245 ft | 440 kts | 13° |
| 2026-04-21 16:32 | 42.28831 | 124.80946 | 28029 ft | 437 kts | 13° |
| 2026-04-21 16:33 | 42.31522 | 124.82818 | 27814 ft | 432 kts | 13° |
| 2026-04-21 16:33 | 42.34170 | 124.84652 | 27590 ft | 433 kts | 13° |
| 2026-04-21 16:33 | 42.36849 | 124.86518 | 27367 ft | 428 kts | 13° |
| 2026-04-21 16:33 | 42.39484 | 124.88361 | 27148 ft | 423 kts | 13° |
| 2026-04-21 16:34 | 42.42083 | 124.90161 | 26917 ft | 422 kts | 13° |
| 2026-04-21 16:34 | 42.44691 | 124.91967 | 26695 ft | 418 kts | 13° |
| 2026-04-21 16:34 | 42.47257 | 124.93746 | 26467 ft | 414 kts | 13° |
| 2026-04-21 16:34 | 42.49801 | 124.95509 | 26244 ft | 415 kts | 13° |
| 2026-04-21 16:35 | 42.52352 | 124.97280 | 26015 ft | 411 kts | 13° |
| 2026-04-21 16:35 | 42.54892 | 124.99044 | 25797 ft | 411 kts | 13° |
| 2026-04-21 16:35 | 42.57436 | 125.00807 | 25555 ft | 410 kts | 13° |
| 2026-04-21 16:35 | 42.59958 | 125.02567 | 25330 ft | 405 kts | 13° |
| 2026-04-21 16:36 | 42.62486 | 125.04333 | 25100 ft | 406 kts | 14° |
| 2026-04-21 16:36 | 42.64973 | 125.06073 | 24854 ft | 401 kts | 14° |
| 2026-04-21 16:36 | 42.67430 | 125.07801 | 24619 ft | 395 kts | 14° |
| 2026-04-21 16:36 | 42.69874 | 125.09515 | 24400 ft | 396 kts | 14° |
| 2026-04-21 16:37 | 42.72339 | 125.11231 | 24169 ft | 399 kts | 14° |
| 2026-04-21 16:37 | 42.74789 | 125.12943 | 23916 ft | 398 kts | 14° |
| 2026-04-21 16:37 | 42.77233 | 125.14660 | 23665 ft | 393 kts | 14° |
| 2026-04-21 16:37 | 42.79641 | 125.16426 | 23417 ft | 396 kts | 17° |
| 2026-04-21 16:38 | 42.81961 | 125.18582 | 23162 ft | 413 kts | 27° |
| 2026-04-21 16:38 | 42.84016 | 125.21407 | 22913 ft | 427 kts | 40° |
| 2026-04-21 16:38 | 42.85814 | 125.24648 | 22669 ft | 435 kts | 45° |
| 2026-04-21 16:38 | 42.87505 | 125.28047 | 22409 ft | 433 kts | 47° |
| 2026-04-21 16:39 | 42.89121 | 125.31490 | 22137 ft | 431 kts | 48° |
| 2026-04-21 16:39 | 42.90786 | 125.34901 | 21879 ft | 428 kts | 44° |
| 2026-04-21 16:39 | 42.92773 | 125.37801 | 21630 ft | 410 kts | 27° |
| 2026-04-21 16:39 | 42.95097 | 125.39889 | 21384 ft | 397 kts | 17° |
| 2026-04-21 16:40 | 42.97524 | 125.41608 | 21134 ft | 390 kts | 13° |
| 2026-04-21 16:40 | 42.99939 | 125.43179 | 20874 ft | 381 kts | 13° |
| 2026-04-21 16:40 | 43.02309 | 125.44697 | 20605 ft | 374 kts | 12° |
| 2026-04-21 16:40 | 43.04629 | 125.46201 | 20348 ft | 369 kts | 12° |
| 2026-04-21 16:41 | 43.06941 | 125.47731 | 20022 ft | 369 kts | 13° |
| 2026-04-21 16:41 | 43.09262 | 125.49291 | 19553 ft | 375 kts | 14° |
| 2026-04-21 16:41 | 43.11628 | 125.50903 | 19037 ft | 377 kts | 14° |
| 2026-04-21 16:41 | 43.13943 | 125.52509 | 18511 ft | 376 kts | 15° |
| 2026-04-21 16:42 | 43.16275 | 125.54148 | 17997 ft | 374 kts | 15° |
| 2026-04-21 16:42 | 43.18558 | 125.55759 | 17486 ft | 372 kts | 15° |
| 2026-04-21 16:42 | 43.20852 | 125.57384 | 16980 ft | 370 kts | 15° |
| 2026-04-21 16:42 | 43.23134 | 125.59002 | 16465 ft | 368 kts | 15° |
| 2026-04-21 16:43 | 43.25413 | 125.60485 | 15941 ft | 359 kts | 10° |
| 2026-04-21 16:43 | 43.27723 | 125.61343 | 15546 ft | 331 kts | 352° |
| 2026-04-21 16:43 | 43.29875 | 125.61101 | 15549 ft | 295 kts | 334° |
| 2026-04-21 16:43 | 43.31759 | 125.60280 | 15547 ft | 274 kts | 329° |
| 2026-04-21 16:44 | 43.33514 | 125.59441 | 15541 ft | 260 kts | 328° |
| 2026-04-21 16:44 | 43.35212 | 125.58637 | 15502 ft | 259 kts | 328° |
| 2026-04-21 16:44 | 43.36932 | 125.57815 | 15191 ft | 265 kts | 328° |
| 2026-04-21 16:44 | 43.38670 | 125.56994 | 14753 ft | 266 kts | 329° |
| 2026-04-21 16:45 | 43.40427 | 125.56184 | 14281 ft | 267 kts | 329° |
| 2026-04-21 16:45 | 43.42164 | 125.55381 | 13813 ft | 267 kts | 329° |
| 2026-04-21 16:45 | 43.43938 | 125.54565 | 13363 ft | 268 kts | 330° |
| 2026-04-21 16:45 | 43.45700 | 125.53758 | 12888 ft | 268 kts | 330° |
| 2026-04-21 16:46 | 43.47472 | 125.52935 | 12406 ft | 269 kts | 330° |
| 2026-04-21 16:46 | 43.49235 | 125.52111 | 11941 ft | 268 kts | 331° |
| 2026-04-21 16:46 | 43.50977 | 125.51302 | 11653 ft | 261 kts | 330° |
| 2026-04-21 16:46 | 43.52660 | 125.50530 | 11536 ft | 251 kts | 330° |
| 2026-04-21 16:47 | 43.54313 | 125.49755 | 11163 ft | 248 kts | 330° |
| 2026-04-21 16:47 | 43.55927 | 125.48996 | 10902 ft | 243 kts | 330° |
| 2026-04-21 16:47 | 43.57521 | 125.48245 | 10549 ft | 240 kts | 331° |
| 2026-04-21 16:47 | 43.59080 | 125.47514 | 10219 ft | 238 kts | 330° |
| 2026-04-21 16:48 | 43.60628 | 125.46739 | 9889 ft | 232 kts | 327° |
| 2026-04-21 16:48 | 43.61929 | 125.45601 | 9846 ft | 213 kts | 313° |
| 2026-04-21 16:48 | 43.62987 | 125.44267 | 9807 ft | 201 kts | 311° |
| 2026-04-21 16:48 | 43.63996 | 125.42974 | 9600 ft | 198 kts | 311° |
| 2026-04-21 16:49 | 43.65031 | 125.41708 | 9307 ft | 199 kts | 313° |
| 2026-04-21 16:49 | 43.66072 | 125.40469 | 9000 ft | 198 kts | 313° |
| 2026-04-21 16:49 | 43.67106 | 125.39241 | 8707 ft | 197 kts | 314° |
| 2026-04-21 16:49 | 43.68159 | 125.37985 | 8411 ft | 200 kts | 314° |
| 2026-04-21 16:50 | 43.69209 | 125.36730 | 8109 ft | 200 kts | 314° |
| 2026-04-21 16:50 | 43.70258 | 125.35474 | 7819 ft | 199 kts | 315° |
| 2026-04-21 16:50 | 43.71296 | 125.34237 | 7521 ft | 198 kts | 315° |
| 2026-04-21 16:50 | 43.72336 | 125.32989 | 7232 ft | 197 kts | 315° |
| 2026-04-21 16:51 | 43.73378 | 125.31814 | 7045 ft | 190 kts | 322° |
| 2026-04-21 16:51 | 43.74597 | 125.31186 | 6940 ft | 189 kts | 347° |
| 2026-04-21 16:51 | 43.75883 | 125.31618 | 6835 ft | 201 kts | 18° |
| 2026-04-21 16:51 | 43.77006 | 125.32833 | 6613 ft | 206 kts | 31° |
| 2026-04-21 16:52 | 43.78038 | 125.34230 | 6352 ft | 209 kts | 34° |
| 2026-04-21 16:52 | 43.79032 | 125.35695 | 6095 ft | 210 kts | 36° |
| 2026-04-21 16:52 | 43.80008 | 125.37214 | 5842 ft | 211 kts | 38° |
| 2026-04-21 16:52 | 43.80966 | 125.38727 | 5588 ft | 209 kts | 38° |
| 2026-04-21 16:53 | 43.81923 | 125.40243 | 5332 ft | 208 kts | 38° |
| 2026-04-21 16:53 | 43.82863 | 125.41740 | 5077 ft | 206 kts | 39° |
| 2026-04-21 16:53 | 43.83804 | 125.43245 | 4820 ft | 205 kts | 39° |
| 2026-04-21 16:53 | 43.84719 | 125.44698 | 4570 ft | 200 kts | 38° |
| 2026-04-21 16:54 | 43.85638 | 125.46154 | 4315 ft | 198 kts | 39° |
| 2026-04-21 16:54 | 43.86527 | 125.47572 | 4063 ft | 197 kts | 39° |
| 2026-04-21 16:54 | 43.87419 | 125.49002 | 3899 ft | 194 kts | 39° |
| 2026-04-21 16:54 | 43.88283 | 125.50396 | 3885 ft | 183 kts | 39° |
| 2026-04-21 16:55 | 43.89106 | 125.51708 | 3718 ft | 179 kts | 38° |
| 2026-04-21 16:55 | 43.89940 | 125.52999 | 3446 ft | 181 kts | 38° |
| 2026-04-21 16:55 | 43.90739 | 125.54274 | 3198 ft | 170 kts | 39° |
| 2026-04-21 16:55 | 43.91467 | 125.55474 | 2953 ft | 157 kts | 39° |
| 2026-04-21 16:56 | 43.92168 | 125.56574 | 2724 ft | 148 kts | 38° |
| 2026-04-21 16:56 | 43.92857 | 125.57638 | 2549 ft | 150 kts | 40° |
| 2026-04-21 16:56 | 43.93562 | 125.58794 | 2356 ft | 158 kts | 41° |
| 2026-04-21 16:56 | 43.94279 | 125.59961 | 2077 ft | 160 kts | 41° |
| 2026-04-21 16:57 | 43.95011 | 125.61088 | 1887 ft | 159 kts | 42° |
| 2026-04-21 16:57 | 43.95728 | 125.62277 | 1671 ft | 161 kts | 45° |
| 2026-04-21 16:57 | 43.96471 | 125.63449 | 1432 ft | 161 kts | 42° |
| 2026-04-21 16:57 | 43.97192 | 125.64603 | 1206 ft | 160 kts | 45° |
| 2026-04-21 16:58 | 43.97905 | 125.65747 | 995 ft | 156 kts | 47° |
| 2026-04-21 16:58 | 43.98609 | 125.66870 | 790 ft | 156 kts | 49° |
| 2026-04-21 16:58 | 43.99294 | 125.67967 | 717 ft | 127 kts | 50° |
| 2026-04-21 16:58 | 43.99695 | 125.68617 | 717 ft | 58 kts | 49° |
| 2026-04-21 16:59 | 43.99878 | 125.68911 | 717 ft | 26 kts | 49° |
| 2026-04-21 16:59 | 43.99937 | 125.69083 | 717 ft | 19 kts | 81° |
| 2026-04-21 16:59 | 43.99959 | 125.69247 | 717 ft | 14 kts | 77° |
| 2026-04-21 16:59 | 43.99979 | 125.69382 | 717 ft | 14 kts | 79° |
| 2026-04-21 17:00 | 44.00021 | 125.69502 | 717 ft | 14 kts | 49° |
| 2026-04-21 17:00 | 44.00087 | 125.69606 | 717 ft | 12 kts | 49° |
| 2026-04-21 17:00 | 44.00115 | 125.69659 | 717 ft | 10 kts | 69° |
| 2026-04-21 17:00 | 44.00066 | 125.69761 | 717 ft | 10 kts | 139° |
| 2026-04-21 17:01 | 44.00008 | 125.69829 | 717 ft | 12 kts | 140° |
| 2026-04-21 17:01 | 43.99939 | 125.69912 | 717 ft | 13 kts | 139° |
| 2026-04-21 17:01 | 43.99869 | 125.69995 | 717 ft | 13 kts | 139° |
| 2026-04-21 17:01 | 43.99804 | 125.70072 | 717 ft | 10 kts | 139° |
| 2026-04-21 17:02 | 43.99744 | 125.70057 | 717 ft | 10 kts | 227° |
| 2026-04-21 17:02 | 43.99689 | 125.69994 | 717 ft | 10 kts | 207° |
| 2026-04-21 17:02 | 43.99633 | 125.69958 | 717 ft | 7 kts | 213° |
| 2026-04-21 17:02 | 43.99618 | 125.69900 | 717 ft | 6 kts | 259° |
| 2026-04-21 17:03 | 43.99594 | 125.69850 | 717 ft | 5 kts | 229° |
| 2026-04-21 17:03 | 43.99579 | 125.69826 | 717 ft | 2 kts | 230° |
| 2026-04-21 17:03 | 43.99572 | 125.69814 | 717 ft | 0 kts | 230° |